Nellis Air Force Base
KLSV : rendu visible

Aérodrome :











RETROUVEZ-NOUS SUR...

 
LOGIN :

S'inscrire | Disclaimer

   EN    FR    IT 

 









Légende :    VFR   VFR Marginal   IFR   IFR Intensif   IFR Très Intensif
Visi : 
Plafond : 
>= 8 km
>= 3000ft
5 à 8 km
1000 à 3000 ft
1500m à 5 km
500 à 1000 ft
800 à 1500m
200 à 500 ft
< 800m
< 200 ft
Symboles :   Orages  Brouillard  Fortes neiges  Fortes précipitations  Vent > 20 kt






- Altitude de l'aérodrome : 1870 ft


KLSV - Nellis Air Force Base

DERNIER METAR :
  • 081758Z AUTO 07006KT 10SM CLR 20/00 A2993 RMK AO2 SLP124 T02020001 10202 20106 50003 $

METARs EXPIRÉS :
  • 081658Z AUTO 07008KT 10SM FEW190 19/03 A2994 RMK AO2 SLP128 T01860028 $
  • 081558Z AUTO 03010KT 10SM CLR 18/04 A2992 RMK AO2 SLP121 T01750041 $

TAF AMD TAF KLSV
Valide du 08 à 17h jusqu'au 09 à 21h UTC


081731Z 0817/0921 03010G15KT 9999 SCT080 BKN220 QNH2991INS
BECMG 0817/0818 13010G15KT 9999 VCSH SCT080 BKN120 610809 520009 QNH2989INS
BECMG 0819/0820 15015G25KT 9000 -SHRA BKN050 610709 520009 QNH2983INS
TEMPO 0821/0902 VRB20G35KT VCTS BKN030CB
BECMG 0901/0902 15009KT 9000 -SHRA BKN030 610709 QNH2999INS
BECMG 0907/0908 11006KT 9999 NSW SCT030 BKN060 620809 QNH3005INS
BECMG 0919/0920 18009KT 9999 SCT060 BKN100 620809 QNH3005INS TX19/0822Z TN10/0913Z



MET'MAP, la Météo Aéronautique d'un coup d'oeil ! - Copyright ORBIFLY Décembre 2007 - Disclaimer

ORBIFLY MET'MAP TEAM :

Programmation & Développement : Alexandra Zaïnal
Sur une idée originale de : Baudouin d'Aumeries
Assistance à la programmation : Marc-Olivier Méhu
Soutien technique & logistique : Manuel Goepfert

Contact : metmap@orbifly.com




SOURCES & CREDITS :

   NOAA       Earth
Advisory